sensor_id;sensor_type;location;lat;lon;timestamp;P1;durP1;ratioP1;P2;durP2;ratioP2
51438;SDS011;38816;51.142;-0.974;2023-03-30T00:00:51;54.58;;;5.85;;
51438;SDS011;38816;51.142;-0.974;2023-03-30T00:03:17;32.70;;;4.53;;
51438;SDS011;38816;51.142;-0.974;2023-03-30T00:05:46;53.63;;;6.28;;
51438;SDS011;38816;51.142;-0.974;2023-03-30T00:08:20;55.38;;;5.75;;
51438;SDS011;38816;51.142;-0.974;2023-03-30T00:10:52;51.05;;;5.75;;
51438;SDS011;38816;51.142;-0.974;2023-03-30T00:13:32;57.78;;;6.10;;
51438;SDS011;38816;51.142;-0.974;2023-03-30T00:15:58;63.00;;;7.50;;
51438;SDS011;38816;51.142;-0.974;2023-03-30T00:18:24;38.53;;;5.50;;
51438;SDS011;38816;51.142;-0.974;2023-03-30T00:20:50;59.58;;;6.07;;
51438;SDS011;38816;51.142;-0.974;2023-03-30T00:23:16;36.63;;;4.72;;
51438;SDS011;38816;51.142;-0.974;2023-03-30T00:25:42;52.50;;;5.65;;
51438;SDS011;38816;51.142;-0.974;2023-03-30T00:28:11;40.22;;;5.80;;
51438;SDS011;38816;51.142;-0.974;2023-03-30T00:30:36;50.25;;;5.65;;
51438;SDS011;38816;51.142;-0.974;2023-03-30T00:33:02;47.50;;;5.85;;
51438;SDS011;38816;51.142;-0.974;2023-03-30T00:35:28;44.72;;;5.28;;
51438;SDS011;38816;51.142;-0.974;2023-03-30T00:37:57;45.83;;;5.43;;
51438;SDS011;38816;51.142;-0.974;2023-03-30T00:40:25;31.85;;;4.43;;
51438;SDS011;38816;51.142;-0.974;2023-03-30T00:42:56;34.85;;;4.80;;
51438;SDS011;38816;51.142;-0.974;2023-03-30T00:45:27;31.15;;;4.55;;
51438;SDS011;38816;51.142;-0.974;2023-03-30T00:50:48;40.05;;;5.32;;
51438;SDS011;38816;51.142;-0.974;2023-03-30T00:53:14;56.55;;;5.93;;
51438;SDS011;38816;51.142;-0.974;2023-03-30T00:55:43;41.22;;;5.93;;
51438;SDS011;38816;51.142;-0.974;2023-03-30T00:58:11;42.75;;;4.93;;
51438;SDS011;38816;51.142;-0.974;2023-03-30T01:00:38;45.45;;;4.93;;
51438;SDS011;38816;51.142;-0.974;2023-03-30T01:03:13;46.53;;;5.70;;
51438;SDS011;38816;51.142;-0.974;2023-03-30T01:05:42;40.85;;;5.88;;
51438;SDS011;38816;51.142;-0.974;2023-03-30T01:08:09;45.25;;;6.15;;
51438;SDS011;38816;51.142;-0.974;2023-03-30T01:10:38;44.20;;;5.13;;
51438;SDS011;38816;51.142;-0.974;2023-03-30T01:13:03;43.15;;;5.20;;
51438;SDS011;38816;51.142;-0.974;2023-03-30T01:15:31;37.97;;;6.47;;
51438;SDS011;38816;51.142;-0.974;2023-03-30T01:18:08;48.92;;;5.85;;
51438;SDS011;38816;51.142;-0.974;2023-03-30T01:23:42;38.70;;;4.25;;
51438;SDS011;38816;51.142;-0.974;2023-03-30T01:35:13;38.03;;;4.50;;
51438;SDS011;38816;51.142;-0.974;2023-03-30T01:38:06;44.42;;;5.00;;
51438;SDS011;38816;51.142;-0.974;2023-03-30T01:43:32;49.97;;;6.13;;
51438;SDS011;38816;51.142;-0.974;2023-03-30T01:46:36;44.05;;;5.97;;
51438;SDS011;38816;51.142;-0.974;2023-03-30T01:51:28;38.35;;;5.55;;
51438;SDS011;38816;51.142;-0.974;2023-03-30T01:56:32;45.42;;;5.60;;
51438;SDS011;38816;51.142;-0.974;2023-03-30T01:59:09;38.63;;;5.30;;
51438;SDS011;38816;51.142;-0.974;2023-03-30T02:01:40;43.30;;;5.10;;
51438;SDS011;38816;51.142;-0.974;2023-03-30T02:04:14;40.83;;;5.57;;
51438;SDS011;38816;51.142;-0.974;2023-03-30T02:06:43;32.45;;;5.38;;
51438;SDS011;38816;51.142;-0.974;2023-03-30T02:09:14;43.38;;;5.10;;
51438;SDS011;38816;51.142;-0.974;2023-03-30T02:11:43;39.95;;;5.28;;
51438;SDS011;38816;51.142;-0.974;2023-03-30T02:14:15;39.75;;;5.82;;
51438;SDS011;38816;51.142;-0.974;2023-03-30T02:16:44;39.97;;;4.80;;
51438;SDS011;38816;51.142;-0.974;2023-03-30T02:19:11;35.83;;;4.57;;
51438;SDS011;38816;51.142;-0.974;2023-03-30T02:21:37;35.20;;;4.60;;
51438;SDS011;38816;51.142;-0.974;2023-03-30T02:24:03;30.70;;;3.50;;
51438;SDS011;38816;51.142;-0.974;2023-03-30T02:26:31;29.65;;;3.97;;
51438;SDS011;38816;51.142;-0.974;2023-03-30T02:28:58;27.83;;;3.60;;
51438;SDS011;38816;51.142;-0.974;2023-03-30T02:31:23;30.15;;;3.42;;
51438;SDS011;38816;51.142;-0.974;2023-03-30T02:41:55;24.52;;;4.18;;
51438;SDS011;38816;51.142;-0.974;2023-03-30T02:47:14;30.52;;;5.50;;
51438;SDS011;38816;51.142;-0.974;2023-03-30T02:52:54;40.53;;;5.10;;
51438;SDS011;38816;51.142;-0.974;2023-03-30T02:55:18;39.85;;;4.55;;
51438;SDS011;38816;51.142;-0.974;2023-03-30T02:57:58;53.53;;;6.63;;
51438;SDS011;38816;51.142;-0.974;2023-03-30T03:00:37;33.00;;;4.22;;
51438;SDS011;38816;51.142;-0.974;2023-03-30T03:03:13;42.75;;;5.32;;
51438;SDS011;38816;51.142;-0.974;2023-03-30T03:05:43;38.67;;;4.68;;
51438;SDS011;38816;51.142;-0.974;2023-03-30T03:08:12;45.45;;;4.95;;
51438;SDS011;38816;51.142;-0.974;2023-03-30T03:10:38;40.92;;;4.82;;
51438;SDS011;38816;51.142;-0.974;2023-03-30T03:13:04;49.10;;;6.03;;
51438;SDS011;38816;51.142;-0.974;2023-03-30T03:15:29;49.45;;;6.30;;
51438;SDS011;38816;51.142;-0.974;2023-03-30T03:17:55;41.55;;;4.38;;
51438;SDS011;38816;51.142;-0.974;2023-03-30T03:20:22;45.55;;;4.63;;
51438;SDS011;38816;51.142;-0.974;2023-03-30T03:22:47;41.50;;;5.05;;
51438;SDS011;38816;51.142;-0.974;2023-03-30T03:25:13;35.53;;;4.18;;
51438;SDS011;38816;51.142;-0.974;2023-03-30T03:27:39;40.20;;;4.57;;
51438;SDS011;38816;51.142;-0.974;2023-03-30T03:30:05;40.55;;;4.60;;
51438;SDS011;38816;51.142;-0.974;2023-03-30T03:32:31;36.65;;;4.10;;
51438;SDS011;38816;51.142;-0.974;2023-03-30T03:34:57;42.22;;;5.30;;
51438;SDS011;38816;51.142;-0.974;2023-03-30T03:37:22;39.63;;;4.70;;
51438;SDS011;38816;51.142;-0.974;2023-03-30T03:39:47;44.83;;;4.50;;
51438;SDS011;38816;51.142;-0.974;2023-03-30T03:42:13;39.72;;;5.28;;
51438;SDS011;38816;51.142;-0.974;2023-03-30T03:44:38;51.35;;;5.63;;
51438;SDS011;38816;51.142;-0.974;2023-03-30T03:47:04;49.47;;;5.22;;
51438;SDS011;38816;51.142;-0.974;2023-03-30T03:49:30;47.22;;;5.38;;
51438;SDS011;38816;51.142;-0.974;2023-03-30T03:51:56;48.25;;;5.35;;
51438;SDS011;38816;51.142;-0.974;2023-03-30T03:54:21;35.65;;;4.47;;
51438;SDS011;38816;51.142;-0.974;2023-03-30T03:56:46;57.13;;;5.05;;
51438;SDS011;38816;51.142;-0.974;2023-03-30T03:59:12;51.38;;;5.70;;
51438;SDS011;38816;51.142;-0.974;2023-03-30T04:01:53;54.55;;;5.35;;
51438;SDS011;38816;51.142;-0.974;2023-03-30T04:04:18;45.33;;;5.03;;
51438;SDS011;38816;51.142;-0.974;2023-03-30T04:06:44;47.38;;;4.28;;
51438;SDS011;38816;51.142;-0.974;2023-03-30T04:09:10;45.72;;;5.45;;
51438;SDS011;38816;51.142;-0.974;2023-03-30T04:11:35;69.00;;;6.10;;
51438;SDS011;38816;51.142;-0.974;2023-03-30T04:14:01;57.40;;;6.07;;
51438;SDS011;38816;51.142;-0.974;2023-03-30T04:16:26;53.35;;;4.95;;
51438;SDS011;38816;51.142;-0.974;2023-03-30T04:18:52;54.75;;;4.00;;
51438;SDS011;38816;51.142;-0.974;2023-03-30T04:21:17;53.40;;;5.03;;
51438;SDS011;38816;51.142;-0.974;2023-03-30T04:23:44;60.65;;;5.70;;
51438;SDS011;38816;51.142;-0.974;2023-03-30T04:26:13;68.18;;;5.90;;
51438;SDS011;38816;51.142;-0.974;2023-03-30T04:28:39;62.92;;;5.45;;
51438;SDS011;38816;51.142;-0.974;2023-03-30T04:31:05;54.55;;;5.32;;
51438;SDS011;38816;51.142;-0.974;2023-03-30T04:33:37;87.03;;;7.00;;
51438;SDS011;38816;51.142;-0.974;2023-03-30T04:36:09;61.40;;;5.73;;
51438;SDS011;38816;51.142;-0.974;2023-03-30T04:38:37;63.22;;;5.88;;
51438;SDS011;38816;51.142;-0.974;2023-03-30T04:41:05;57.45;;;5.47;;
51438;SDS011;38816;51.142;-0.974;2023-03-30T04:43:31;54.47;;;6.55;;
51438;SDS011;38816;51.142;-0.974;2023-03-30T04:45:56;47.83;;;4.95;;
51438;SDS011;38816;51.142;-0.974;2023-03-30T04:48:22;66.75;;;7.32;;
51438;SDS011;38816;51.142;-0.974;2023-03-30T04:50:48;69.50;;;6.85;;
51438;SDS011;38816;51.142;-0.974;2023-03-30T04:53:15;69.97;;;6.22;;
51438;SDS011;38816;51.142;-0.974;2023-03-30T04:55:42;58.00;;;6.38;;
51438;SDS011;38816;51.142;-0.974;2023-03-30T04:58:12;65.40;;;7.25;;
51438;SDS011;38816;51.142;-0.974;2023-03-30T05:00:37;63.03;;;7.18;;
51438;SDS011;38816;51.142;-0.974;2023-03-30T05:03:03;70.93;;;6.68;;
51438;SDS011;38816;51.142;-0.974;2023-03-30T05:05:29;71.65;;;7.75;;
51438;SDS011;38816;51.142;-0.974;2023-03-30T05:07:55;62.50;;;6.43;;
51438;SDS011;38816;51.142;-0.974;2023-03-30T05:10:21;74.75;;;7.63;;
51438;SDS011;38816;51.142;-0.974;2023-03-30T05:12:47;71.38;;;6.68;;
51438;SDS011;38816;51.142;-0.974;2023-03-30T05:15:12;64.40;;;6.72;;
51438;SDS011;38816;51.142;-0.974;2023-03-30T05:17:38;73.47;;;6.38;;
51438;SDS011;38816;51.142;-0.974;2023-03-30T05:20:04;63.60;;;5.97;;
51438;SDS011;38816;51.142;-0.974;2023-03-30T05:22:34;71.25;;;6.70;;
51438;SDS011;38816;51.142;-0.974;2023-03-30T05:25:00;83.93;;;8.32;;
51438;SDS011;38816;51.142;-0.974;2023-03-30T05:27:25;65.22;;;7.47;;
51438;SDS011;38816;51.142;-0.974;2023-03-30T05:29:51;77.05;;;6.90;;
51438;SDS011;38816;51.142;-0.974;2023-03-30T05:32:16;62.03;;;6.28;;
51438;SDS011;38816;51.142;-0.974;2023-03-30T05:34:41;55.70;;;5.68;;
51438;SDS011;38816;51.142;-0.974;2023-03-30T05:37:07;51.08;;;5.68;;
51438;SDS011;38816;51.142;-0.974;2023-03-30T05:39:32;63.80;;;6.13;;
51438;SDS011;38816;51.142;-0.974;2023-03-30T05:41:58;69.15;;;6.78;;
51438;SDS011;38816;51.142;-0.974;2023-03-30T05:44:23;46.55;;;5.45;;
51438;SDS011;38816;51.142;-0.974;2023-03-30T05:46:48;58.45;;;6.53;;
51438;SDS011;38816;51.142;-0.974;2023-03-30T05:49:14;71.82;;;6.13;;
51438;SDS011;38816;51.142;-0.974;2023-03-30T05:51:39;70.43;;;6.80;;
51438;SDS011;38816;51.142;-0.974;2023-03-30T05:54:05;60.10;;;5.78;;
51438;SDS011;38816;51.142;-0.974;2023-03-30T05:56:30;53.63;;;6.43;;
51438;SDS011;38816;51.142;-0.974;2023-03-30T05:58:56;72.32;;;6.15;;
51438;SDS011;38816;51.142;-0.974;2023-03-30T06:01:21;59.55;;;5.82;;
51438;SDS011;38816;51.142;-0.974;2023-03-30T06:03:47;59.05;;;6.10;;
51438;SDS011;38816;51.142;-0.974;2023-03-30T06:06:12;62.65;;;5.53;;
51438;SDS011;38816;51.142;-0.974;2023-03-30T06:08:38;70.72;;;7.05;;
51438;SDS011;38816;51.142;-0.974;2023-03-30T06:11:05;67.28;;;7.13;;
51438;SDS011;38816;51.142;-0.974;2023-03-30T06:13:31;42.88;;;5.43;;
51438;SDS011;38816;51.142;-0.974;2023-03-30T06:15:57;51.08;;;5.45;;
51438;SDS011;38816;51.142;-0.974;2023-03-30T06:18:23;52.50;;;5.90;;
51438;SDS011;38816;51.142;-0.974;2023-03-30T06:20:48;50.05;;;6.43;;
51438;SDS011;38816;51.142;-0.974;2023-03-30T06:23:14;62.70;;;5.80;;
51438;SDS011;38816;51.142;-0.974;2023-03-30T06:25:40;73.22;;;6.75;;
51438;SDS011;38816;51.142;-0.974;2023-03-30T06:28:09;70.32;;;5.82;;
51438;SDS011;38816;51.142;-0.974;2023-03-30T06:30:34;62.83;;;6.07;;
51438;SDS011;38816;51.142;-0.974;2023-03-30T06:33:00;54.90;;;5.90;;
51438;SDS011;38816;51.142;-0.974;2023-03-30T06:35:25;74.30;;;6.22;;
51438;SDS011;38816;51.142;-0.974;2023-03-30T06:37:51;67.63;;;6.13;;
51438;SDS011;38816;51.142;-0.974;2023-03-30T06:40:16;56.42;;;5.68;;
51438;SDS011;38816;51.142;-0.974;2023-03-30T06:42:43;59.20;;;6.10;;
51438;SDS011;38816;51.142;-0.974;2023-03-30T06:45:09;55.08;;;5.63;;
51438;SDS011;38816;51.142;-0.974;2023-03-30T06:47:35;42.97;;;5.05;;
51438;SDS011;38816;51.142;-0.974;2023-03-30T06:50:01;59.22;;;6.78;;
51438;SDS011;38816;51.142;-0.974;2023-03-30T06:52:27;68.35;;;6.20;;
51438;SDS011;38816;51.142;-0.974;2023-03-30T06:54:53;60.85;;;5.75;;
51438;SDS011;38816;51.142;-0.974;2023-03-30T06:57:18;59.38;;;6.90;;
51438;SDS011;38816;51.142;-0.974;2023-03-30T06:59:43;67.60;;;5.93;;
51438;SDS011;38816;51.142;-0.974;2023-03-30T07:02:15;61.88;;;6.05;;
51438;SDS011;38816;51.142;-0.974;2023-03-30T07:04:40;51.60;;;5.47;;
51438;SDS011;38816;51.142;-0.974;2023-03-30T07:07:06;64.80;;;6.00;;
51438;SDS011;38816;51.142;-0.974;2023-03-30T07:09:31;41.05;;;5.47;;
51438;SDS011;38816;51.142;-0.974;2023-03-30T07:11:56;54.10;;;6.10;;
51438;SDS011;38816;51.142;-0.974;2023-03-30T07:14:22;60.08;;;5.80;;
51438;SDS011;38816;51.142;-0.974;2023-03-30T07:16:47;43.83;;;5.25;;
51438;SDS011;38816;51.142;-0.974;2023-03-30T07:19:13;59.85;;;5.82;;
51438;SDS011;38816;51.142;-0.974;2023-03-30T07:21:40;48.20;;;5.78;;
51438;SDS011;38816;51.142;-0.974;2023-03-30T07:24:05;69.63;;;7.00;;
51438;SDS011;38816;51.142;-0.974;2023-03-30T07:26:32;44.67;;;5.60;;
51438;SDS011;38816;51.142;-0.974;2023-03-30T07:28:58;42.45;;;5.18;;
51438;SDS011;38816;51.142;-0.974;2023-03-30T07:31:23;46.47;;;5.45;;
51438;SDS011;38816;51.142;-0.974;2023-03-30T07:33:49;66.65;;;6.88;;
51438;SDS011;38816;51.142;-0.974;2023-03-30T07:36:15;53.47;;;6.40;;
51438;SDS011;38816;51.142;-0.974;2023-03-30T07:38:40;57.88;;;6.50;;
51438;SDS011;38816;51.142;-0.974;2023-03-30T07:41:07;48.08;;;6.00;;
51438;SDS011;38816;51.142;-0.974;2023-03-30T07:43:37;50.45;;;5.28;;
51438;SDS011;38816;51.142;-0.974;2023-03-30T07:46:06;55.10;;;6.30;;
51438;SDS011;38816;51.142;-0.974;2023-03-30T07:48:33;55.28;;;6.15;;
51438;SDS011;38816;51.142;-0.974;2023-03-30T07:51:03;57.78;;;6.47;;
51438;SDS011;38816;51.142;-0.974;2023-03-30T07:53:30;44.83;;;5.43;;
51438;SDS011;38816;51.142;-0.974;2023-03-30T07:55:57;55.33;;;5.60;;
51438;SDS011;38816;51.142;-0.974;2023-03-30T07:58:22;61.83;;;6.70;;
51438;SDS011;38816;51.142;-0.974;2023-03-30T08:00:48;46.85;;;6.50;;
51438;SDS011;38816;51.142;-0.974;2023-03-30T08:03:13;45.40;;;5.13;;
51438;SDS011;38816;51.142;-0.974;2023-03-30T08:05:39;42.08;;;5.30;;
51438;SDS011;38816;51.142;-0.974;2023-03-30T08:08:05;51.67;;;6.18;;
51438;SDS011;38816;51.142;-0.974;2023-03-30T08:10:31;42.25;;;5.82;;
51438;SDS011;38816;51.142;-0.974;2023-03-30T08:12:57;49.20;;;6.10;;
51438;SDS011;38816;51.142;-0.974;2023-03-30T08:15:23;50.63;;;6.65;;
51438;SDS011;38816;51.142;-0.974;2023-03-30T08:17:48;60.65;;;6.60;;
51438;SDS011;38816;51.142;-0.974;2023-03-30T08:20:13;41.47;;;5.50;;
51438;SDS011;38816;51.142;-0.974;2023-03-30T08:22:39;56.30;;;6.47;;
51438;SDS011;38816;51.142;-0.974;2023-03-30T08:25:05;45.30;;;7.10;;
51438;SDS011;38816;51.142;-0.974;2023-03-30T08:27:31;39.22;;;6.25;;
51438;SDS011;38816;51.142;-0.974;2023-03-30T08:29:56;45.13;;;5.45;;
51438;SDS011;38816;51.142;-0.974;2023-03-30T08:32:22;38.88;;;5.65;;
51438;SDS011;38816;51.142;-0.974;2023-03-30T08:34:47;51.85;;;6.15;;
51438;SDS011;38816;51.142;-0.974;2023-03-30T08:37:13;49.72;;;6.90;;
51438;SDS011;38816;51.142;-0.974;2023-03-30T08:39:38;56.58;;;5.60;;
51438;SDS011;38816;51.142;-0.974;2023-03-30T08:44:58;37.90;;;5.70;;
51438;SDS011;38816;51.142;-0.974;2023-03-30T08:47:33;39.42;;;5.95;;
51438;SDS011;38816;51.142;-0.974;2023-03-30T08:50:07;55.53;;;7.85;;
51438;SDS011;38816;51.142;-0.974;2023-03-30T08:52:38;63.10;;;6.97;;
51438;SDS011;38816;51.142;-0.974;2023-03-30T08:55:08;49.35;;;6.70;;
51438;SDS011;38816;51.142;-0.974;2023-03-30T08:57:50;55.97;;;6.43;;
51438;SDS011;38816;51.142;-0.974;2023-03-30T09:00:29;54.97;;;6.55;;
51438;SDS011;38816;51.142;-0.974;2023-03-30T09:05:59;48.38;;;6.22;;
51438;SDS011;38816;51.142;-0.974;2023-03-30T09:08:31;44.55;;;5.38;;
51438;SDS011;38816;51.142;-0.974;2023-03-30T09:10:59;50.95;;;6.82;;
51438;SDS011;38816;51.142;-0.974;2023-03-30T09:13:31;38.00;;;5.55;;
51438;SDS011;38816;51.142;-0.974;2023-03-30T09:16:24;45.47;;;5.55;;
51438;SDS011;38816;51.142;-0.974;2023-03-30T09:19:07;51.17;;;7.25;;
51438;SDS011;38816;51.142;-0.974;2023-03-30T09:21:39;57.70;;;7.50;;
51438;SDS011;38816;51.142;-0.974;2023-03-30T09:24:10;37.15;;;6.22;;
51438;SDS011;38816;51.142;-0.974;2023-03-30T09:29:34;35.45;;;5.50;;
51438;SDS011;38816;51.142;-0.974;2023-03-30T09:32:12;36.10;;;5.43;;
51438;SDS011;38816;51.142;-0.974;2023-03-30T09:34:46;46.15;;;6.30;;
51438;SDS011;38816;51.142;-0.974;2023-03-30T09:37:18;49.85;;;6.55;;
51438;SDS011;38816;51.142;-0.974;2023-03-30T09:39:45;33.28;;;5.57;;
51438;SDS011;38816;51.142;-0.974;2023-03-30T09:45:18;45.05;;;5.60;;
51438;SDS011;38816;51.142;-0.974;2023-03-30T09:47:46;43.83;;;5.82;;
51438;SDS011;38816;51.142;-0.974;2023-03-30T09:50:16;43.63;;;6.20;;
51438;SDS011;38816;51.142;-0.974;2023-03-30T09:52:52;51.53;;;5.97;;
51438;SDS011;38816;51.142;-0.974;2023-03-30T09:57:49;48.85;;;6.70;;
51438;SDS011;38816;51.142;-0.974;2023-03-30T10:02:57;41.78;;;6.57;;
51438;SDS011;38816;51.142;-0.974;2023-03-30T10:05:27;50.50;;;6.35;;
51438;SDS011;38816;51.142;-0.974;2023-03-30T10:07:56;52.17;;;7.18;;
51438;SDS011;38816;51.142;-0.974;2023-03-30T10:10:36;63.20;;;7.13;;
51438;SDS011;38816;51.142;-0.974;2023-03-30T10:13:12;56.33;;;8.50;;
51438;SDS011;38816;51.142;-0.974;2023-03-30T10:15:41;46.45;;;6.65;;
51438;SDS011;38816;51.142;-0.974;2023-03-30T10:18:33;49.58;;;6.55;;
51438;SDS011;38816;51.142;-0.974;2023-03-30T10:21:02;45.97;;;6.00;;
51438;SDS011;38816;51.142;-0.974;2023-03-30T10:23:37;46.28;;;6.57;;
51438;SDS011;38816;51.142;-0.974;2023-03-30T10:26:06;48.58;;;6.78;;
51438;SDS011;38816;51.142;-0.974;2023-03-30T10:28:51;52.92;;;6.10;;
51438;SDS011;38816;51.142;-0.974;2023-03-30T10:31:44;41.55;;;5.63;;
51438;SDS011;38816;51.142;-0.974;2023-03-30T10:34:34;35.58;;;5.15;;
51438;SDS011;38816;51.142;-0.974;2023-03-30T10:37:04;37.15;;;5.07;;
51438;SDS011;38816;51.142;-0.974;2023-03-30T10:39:34;37.17;;;5.50;;
51438;SDS011;38816;51.142;-0.974;2023-03-30T10:42:03;44.75;;;5.90;;
51438;SDS011;38816;51.142;-0.974;2023-03-30T10:44:51;33.25;;;4.72;;
51438;SDS011;38816;51.142;-0.974;2023-03-30T10:50:06;30.95;;;4.70;;
51438;SDS011;38816;51.142;-0.974;2023-03-30T10:55:33;37.10;;;4.55;;
51438;SDS011;38816;51.142;-0.974;2023-03-30T11:03:50;28.95;;;5.57;;
51438;SDS011;38816;51.142;-0.974;2023-03-30T11:06:31;27.13;;;5.15;;
51438;SDS011;38816;51.142;-0.974;2023-03-30T11:09:03;32.58;;;5.68;;
51438;SDS011;38816;51.142;-0.974;2023-03-30T11:11:40;26.02;;;4.45;;
51438;SDS011;38816;51.142;-0.974;2023-03-30T11:14:18;32.50;;;4.80;;
51438;SDS011;38816;51.142;-0.974;2023-03-30T11:16:52;40.92;;;6.13;;
51438;SDS011;38816;51.142;-0.974;2023-03-30T11:19:24;43.67;;;5.80;;
51438;SDS011;38816;51.142;-0.974;2023-03-30T11:24:34;37.47;;;6.13;;
51438;SDS011;38816;51.142;-0.974;2023-03-30T11:32:58;48.33;;;6.72;;
51438;SDS011;38816;51.142;-0.974;2023-03-30T11:35:44;39.33;;;5.88;;
51438;SDS011;38816;51.142;-0.974;2023-03-30T11:44:09;32.15;;;5.35;;
51438;SDS011;38816;51.142;-0.974;2023-03-30T11:52:02;42.38;;;6.10;;
51438;SDS011;38816;51.142;-0.974;2023-03-30T12:05:16;37.20;;;5.57;;
51438;SDS011;38816;51.142;-0.974;2023-03-30T12:08:02;43.88;;;5.60;;
51438;SDS011;38816;51.142;-0.974;2023-03-30T12:10:52;40.05;;;6.00;;
51438;SDS011;38816;51.142;-0.974;2023-03-30T12:13:24;32.30;;;4.97;;
51438;SDS011;38816;51.142;-0.974;2023-03-30T12:18:41;41.22;;;5.72;;
51438;SDS011;38816;51.142;-0.974;2023-03-30T12:26:44;40.80;;;5.22;;
51438;SDS011;38816;51.142;-0.974;2023-03-30T12:29:11;41.45;;;6.47;;
51438;SDS011;38816;51.142;-0.974;2023-03-30T12:31:48;34.05;;;4.85;;
51438;SDS011;38816;51.142;-0.974;2023-03-30T12:34:36;39.10;;;6.00;;
51438;SDS011;38816;51.142;-0.974;2023-03-30T12:39:48;28.77;;;5.35;;
51438;SDS011;38816;51.142;-0.974;2023-03-30T12:42:25;29.23;;;4.97;;
51438;SDS011;38816;51.142;-0.974;2023-03-30T12:53:01;34.42;;;6.05;;
51438;SDS011;38816;51.142;-0.974;2023-03-30T13:03:59;27.02;;;4.00;;
51438;SDS011;38816;51.142;-0.974;2023-03-30T13:06:45;25.92;;;4.78;;
51438;SDS011;38816;51.142;-0.974;2023-03-30T13:14:18;32.42;;;5.22;;
51438;SDS011;38816;51.142;-0.974;2023-03-30T13:24:38;35.97;;;5.85;;
51438;SDS011;38816;51.142;-0.974;2023-03-30T13:32:52;33.35;;;5.60;;
51438;SDS011;38816;51.142;-0.974;2023-03-30T13:38:45;31.95;;;5.05;;
51438;SDS011;38816;51.142;-0.974;2023-03-30T13:41:42;37.10;;;6.32;;
51438;SDS011;38816;51.142;-0.974;2023-03-30T13:44:23;38.55;;;6.05;;
51438;SDS011;38816;51.142;-0.974;2023-03-30T13:49:33;44.72;;;6.10;;
51438;SDS011;38816;51.142;-0.974;2023-03-30T13:52:09;40.20;;;6.20;;
51438;SDS011;38816;51.142;-0.974;2023-03-30T13:54:40;49.10;;;6.40;;
51438;SDS011;38816;51.142;-0.974;2023-03-30T13:57:07;36.90;;;5.95;;
51438;SDS011;38816;51.142;-0.974;2023-03-30T13:59:57;41.38;;;5.80;;
51438;SDS011;38816;51.142;-0.974;2023-03-30T14:02:28;42.22;;;5.43;;
51438;SDS011;38816;51.142;-0.974;2023-03-30T14:05:09;46.97;;;7.05;;
51438;SDS011;38816;51.142;-0.974;2023-03-30T14:07:39;39.40;;;5.70;;
51438;SDS011;38816;51.142;-0.974;2023-03-30T14:12:36;34.13;;;5.43;;
51438;SDS011;38816;51.142;-0.974;2023-03-30T14:15:23;34.50;;;5.97;;
51438;SDS011;38816;51.142;-0.974;2023-03-30T14:17:54;43.40;;;6.53;;
51438;SDS011;38816;51.142;-0.974;2023-03-30T14:20:43;36.72;;;5.60;;
51438;SDS011;38816;51.142;-0.974;2023-03-30T14:26:11;51.45;;;6.90;;
51438;SDS011;38816;51.142;-0.974;2023-03-30T14:28:38;45.35;;;5.75;;
51438;SDS011;38816;51.142;-0.974;2023-03-30T14:31:16;38.50;;;5.53;;
51438;SDS011;38816;51.142;-0.974;2023-03-30T14:33:43;39.10;;;5.82;;
51438;SDS011;38816;51.142;-0.974;2023-03-30T14:36:09;33.80;;;4.93;;
51438;SDS011;38816;51.142;-0.974;2023-03-30T14:38:45;38.72;;;5.32;;
51438;SDS011;38816;51.142;-0.974;2023-03-30T14:41:23;32.60;;;5.22;;
51438;SDS011;38816;51.142;-0.974;2023-03-30T14:46:16;32.40;;;5.78;;
51438;SDS011;38816;51.142;-0.974;2023-03-30T14:48:42;39.40;;;6.03;;
51438;SDS011;38816;51.142;-0.974;2023-03-30T14:53:59;34.10;;;6.50;;
51438;SDS011;38816;51.142;-0.974;2023-03-30T14:56:25;47.88;;;6.03;;
51438;SDS011;38816;51.142;-0.974;2023-03-30T14:58:51;45.58;;;6.78;;
51438;SDS011;38816;51.142;-0.974;2023-03-30T15:01:21;47.88;;;6.28;;
51438;SDS011;38816;51.142;-0.974;2023-03-30T15:03:54;46.13;;;5.55;;
51438;SDS011;38816;51.142;-0.974;2023-03-30T15:06:21;33.88;;;5.05;;
51438;SDS011;38816;51.142;-0.974;2023-03-30T15:08:50;33.83;;;5.85;;
51438;SDS011;38816;51.142;-0.974;2023-03-30T15:11:21;42.00;;;5.78;;
51438;SDS011;38816;51.142;-0.974;2023-03-30T15:13:53;37.30;;;5.68;;
51438;SDS011;38816;51.142;-0.974;2023-03-30T15:16:27;45.38;;;5.90;;
51438;SDS011;38816;51.142;-0.974;2023-03-30T15:19:03;41.33;;;6.72;;
51438;SDS011;38816;51.142;-0.974;2023-03-30T15:21:49;35.25;;;5.30;;
51438;SDS011;38816;51.142;-0.974;2023-03-30T15:24:19;44.15;;;6.35;;
51438;SDS011;38816;51.142;-0.974;2023-03-30T15:26:50;45.08;;;6.22;;
51438;SDS011;38816;51.142;-0.974;2023-03-30T15:29:18;40.42;;;6.15;;
51438;SDS011;38816;51.142;-0.974;2023-03-30T15:31:44;33.63;;;5.32;;
51438;SDS011;38816;51.142;-0.974;2023-03-30T15:34:14;36.05;;;5.35;;
51438;SDS011;38816;51.142;-0.974;2023-03-30T15:36:40;38.58;;;6.07;;
51438;SDS011;38816;51.142;-0.974;2023-03-30T15:39:25;38.50;;;5.78;;
51438;SDS011;38816;51.142;-0.974;2023-03-30T15:44:26;46.72;;;5.95;;
51438;SDS011;38816;51.142;-0.974;2023-03-30T15:46:55;42.75;;;7.20;;
51438;SDS011;38816;51.142;-0.974;2023-03-30T15:49:27;51.58;;;7.63;;
51438;SDS011;38816;51.142;-0.974;2023-03-30T15:51:59;45.40;;;6.18;;
51438;SDS011;38816;51.142;-0.974;2023-03-30T15:54:32;41.25;;;6.55;;
51438;SDS011;38816;51.142;-0.974;2023-03-30T15:57:03;36.30;;;6.65;;
51438;SDS011;38816;51.142;-0.974;2023-03-30T15:59:44;46.13;;;7.72;;
51438;SDS011;38816;51.142;-0.974;2023-03-30T16:02:20;51.13;;;6.82;;
51438;SDS011;38816;51.142;-0.974;2023-03-30T16:05:07;46.15;;;7.05;;
51438;SDS011;38816;51.142;-0.974;2023-03-30T16:07:41;40.35;;;6.40;;
51438;SDS011;38816;51.142;-0.974;2023-03-30T16:10:11;42.38;;;6.53;;
51438;SDS011;38816;51.142;-0.974;2023-03-30T16:12:43;50.83;;;6.93;;
51438;SDS011;38816;51.142;-0.974;2023-03-30T16:15:29;45.75;;;6.82;;
51438;SDS011;38816;51.142;-0.974;2023-03-30T16:17:56;55.53;;;7.45;;
51438;SDS011;38816;51.142;-0.974;2023-03-30T16:20:23;51.67;;;7.63;;
51438;SDS011;38816;51.142;-0.974;2023-03-30T16:22:53;57.47;;;7.47;;
51438;SDS011;38816;51.142;-0.974;2023-03-30T16:25:19;44.03;;;6.55;;
51438;SDS011;38816;51.142;-0.974;2023-03-30T16:27:46;50.35;;;6.60;;
51438;SDS011;38816;51.142;-0.974;2023-03-30T16:33:04;45.40;;;6.80;;
51438;SDS011;38816;51.142;-0.974;2023-03-30T16:35:29;51.47;;;6.55;;
51438;SDS011;38816;51.142;-0.974;2023-03-30T16:37:55;39.80;;;5.88;;
51438;SDS011;38816;51.142;-0.974;2023-03-30T16:42:55;35.67;;;5.43;;
51438;SDS011;38816;51.142;-0.974;2023-03-30T16:45:20;33.03;;;5.60;;
51438;SDS011;38816;51.142;-0.974;2023-03-30T16:47:46;33.30;;;5.93;;
51438;SDS011;38816;51.142;-0.974;2023-03-30T16:50:26;41.88;;;5.90;;
51438;SDS011;38816;51.142;-0.974;2023-03-30T16:52:58;45.47;;;6.38;;
51438;SDS011;38816;51.142;-0.974;2023-03-30T16:55:23;37.58;;;5.25;;
51438;SDS011;38816;51.142;-0.974;2023-03-30T16:57:49;37.80;;;4.78;;
51438;SDS011;38816;51.142;-0.974;2023-03-30T17:00:18;44.47;;;6.10;;
51438;SDS011;38816;51.142;-0.974;2023-03-30T17:02:46;41.88;;;5.68;;
51438;SDS011;38816;51.142;-0.974;2023-03-30T17:05:12;50.08;;;6.43;;
51438;SDS011;38816;51.142;-0.974;2023-03-30T17:07:38;46.80;;;6.18;;
51438;SDS011;38816;51.142;-0.974;2023-03-30T17:12:50;50.85;;;6.57;;
51438;SDS011;38816;51.142;-0.974;2023-03-30T17:15:16;48.50;;;5.75;;
51438;SDS011;38816;51.142;-0.974;2023-03-30T17:17:42;53.10;;;6.95;;
51438;SDS011;38816;51.142;-0.974;2023-03-30T17:23:18;39.60;;;7.40;;
51438;SDS011;38816;51.142;-0.974;2023-03-30T17:25:44;37.83;;;5.45;;
51438;SDS011;38816;51.142;-0.974;2023-03-30T17:28:19;40.20;;;5.60;;